Time;durP1;ratioP1;P1;durP2;ratioP2;P2;SDS_P1;SDS_P2;PMS_P1;PMS_P2;Temp;Humidity;BMP_temperature;BMP_pressure;BME280_temperature;BME280_humidity;BME280_pressure;Samples;Min_cycle;Max_cycle;Signal;HPM_P1;HPM_P2
2022/08/24 00:01:07;;;;;;;16.65;15.07;;;21.10;99.90;;;;;;6340010;22;20002;-79
2022/08/24 00:03:34;;;;;;;16.40;14.60;;;21.10;99.90;;;;;;6339416;22;20007;-77
2022/08/24 00:05:59;;;;;;;15.68;14.27;;;21.10;99.90;;;;;;6340470;22;20002;-78
2022/08/24 00:08:26;;;;;;;16.02;13.88;;;21.10;99.90;;;;;;6339105;22;20038;-77
2022/08/24 00:10:51;;;;;;;14.95;13.45;;;21.20;99.90;;;;;;6340552;22;20010;-78
2022/08/24 00:13:17;;;;;;;15.73;13.73;;;21.20;99.90;;;;;;6340078;22;20003;-79
2022/08/24 00:15:43;;;;;;;15.95;13.48;;;21.20;99.90;;;;;;6339662;22;20006;-78
2022/08/24 00:18:09;;;;;;;14.57;13.18;;;21.20;99.90;;;;;;6339159;22;19999;-79
2022/08/24 00:20:36;;;;;;;15.52;13.93;;;21.20;99.90;;;;;;6338502;22;20002;-80
2022/08/24 00:23:02;;;;;;;18.25;14.55;;;21.30;99.90;;;;;;6339825;22;20018;-78
2022/08/24 00:25:27;;;;;;;14.25;12.95;;;21.30;99.90;;;;;;6339790;22;20326;-78
2022/08/24 00:27:53;;;;;;;13.18;12.05;;;21.30;99.90;;;;;;6339554;22;20006;-78
2022/08/24 00:30:19;;;;;;;14.10;12.80;;;21.30;99.90;;;;;;6338053;22;19998;-78
2022/08/24 00:32:47;;;;;;;14.73;13.25;;;21.20;99.90;;;;;;6339240;22;20009;-76
2022/08/24 00:35:14;;;;;;;14.20;12.82;;;21.30;99.90;;;;;;6338439;22;20034;-78
2022/08/24 00:37:40;;;;;;;15.70;14.30;;;21.20;99.90;;;;;;6342957;22;20033;-78
2022/08/24 00:40:12;;;;;;;15.23;13.75;;;21.20;99.90;;;;;;6345548;22;20003;-78
2022/08/24 00:42:39;;;;;;;14.43;13.07;;;21.10;99.90;;;;;;6310849;22;20003;-78
2022/08/24 00:45:07;;;;;;;17.88;14.48;;;21.10;99.90;;;;;;6338046;22;20054;-80
2022/08/24 00:47:43;;;;;;;18.20;16.23;;;21.10;99.90;;;;;;6339352;22;20015;-78
2022/08/24 00:50:13;;;;;;;17.88;16.00;;;21.10;99.90;;;;;;6341372;22;20111;-77
2022/08/24 00:52:42;;;;;;;17.05;14.95;;;21.00;99.90;;;;;;6342514;22;19999;-79
2022/08/24 00:55:22;;;;;;;16.25;14.57;;;20.90;99.90;;;;;;6342651;22;20078;-78
2022/08/24 00:57:54;;;;;;;19.63;16.63;;;20.90;99.90;;;;;;6342202;22;20127;-78
2022/08/24 01:00:25;;;;;;;16.08;14.52;;;20.90;99.90;;;;;;6338652;22;20704;-78
2022/08/24 01:02:55;;;;;;;17.90;15.20;;;20.90;99.90;;;;;;6338949;22;20020;-79
2022/08/24 01:05:21;;;;;;;17.67;15.88;;;20.80;99.90;;;;;;6339054;22;20330;-78
2022/08/24 01:07:48;;;;;;;17.60;15.82;;;20.80;99.90;;;;;;6339126;22;20086;-79
2022/08/24 01:10:23;;;;;;;17.85;16.05;;;20.80;99.90;;;;;;6339781;22;20002;-78
2022/08/24 01:12:51;;;;;;;18.38;16.20;;;20.80;99.90;;;;;;6339022;22;20018;-79
2022/08/24 01:15:19;;;;;;;20.17;16.40;;;20.70;99.90;;;;;;6339695;22;20088;-76
2022/08/24 01:20:33;;;;;;;18.80;15.02;;;20.60;99.90;;;;;;6338810;22;20013;-78
2022/08/24 01:23:28;;;;;;;16.55;14.82;;;20.60;99.90;;;;;;6339517;22;20026;-79
2022/08/24 01:25:54;;;;;;;16.98;15.30;;;20.60;99.90;;;;;;6337948;22;20015;-79
2022/08/24 01:28:20;;;;;;;18.95;15.73;;;20.60;99.90;;;;;;6339426;22;20077;-79
2022/08/24 01:30:46;;;;;;;19.13;17.10;;;20.50;99.90;;;;;;6339051;22;20073;-78
2022/08/24 01:33:22;;;;;;;18.67;16.48;;;20.50;99.90;;;;;;6338017;22;20032;-79
2022/08/24 01:35:48;;;;;;;18.70;16.40;;;20.50;99.90;;;;;;6338927;22;20006;-79
2022/08/24 01:38:15;;;;;;;18.92;16.92;;;20.50;99.90;;;;;;6337963;22;20002;-80
2022/08/24 01:40:51;;;;;;;21.70;18.25;;;20.50;99.90;;;;;;6337892;22;20107;-78
2022/08/24 01:43:17;;;;;;;18.73;16.80;;;20.50;99.90;;;;;;6338456;22;20002;-79
2022/08/24 01:45:43;;;;;;;18.60;16.88;;;20.50;99.90;;;;;;6339638;22;20083;-79
2022/08/24 01:48:09;;;;;;;23.00;18.45;;;20.50;99.90;;;;;;6338812;22;20090;-79
2022/08/24 01:50:35;;;;;;;18.83;17.02;;;20.40;99.90;;;;;;6339474;22;19994;-77
2022/08/24 01:53:03;;;;;;;21.58;19.27;;;20.40;99.90;;;;;;6339277;22;20044;-78
2022/08/24 01:55:29;;;;;;;21.70;18.65;;;20.40;99.90;;;;;;6311133;22;20083;-79
2022/08/24 01:57:55;;;;;;;19.05;16.92;;;20.40;99.90;;;;;;6338210;22;20036;-78
2022/08/24 02:00:21;;;;;;;20.63;18.52;;;20.30;99.90;;;;;;6338428;22;20003;-79
2022/08/24 02:02:46;;;;;;;20.55;18.35;;;20.30;99.90;;;;;;6338011;22;20003;-78
2022/08/24 02:05:14;;;;;;;20.88;18.40;;;20.30;99.90;;;;;;6339067;22;20407;-78
2022/08/24 02:07:40;;;;;;;20.20;17.02;;;20.40;99.90;;;;;;6339672;22;20010;-79
2022/08/24 02:10:09;;;;;;;21.92;18.65;;;20.30;99.90;;;;;;6338932;22;20061;-79
2022/08/24 02:12:37;;;;;;;21.90;19.38;;;20.30;99.90;;;;;;6340703;22;20003;-79
2022/08/24 02:15:06;;;;;;;22.42;17.70;;;20.40;99.90;;;;;;6339030;22;20055;-78
2022/08/24 02:17:33;;;;;;;21.15;18.70;;;20.30;99.90;;;;;;6341385;22;20005;-78
2022/08/24 02:19:59;;;;;;;19.92;17.85;;;20.30;99.90;;;;;;6351318;22;19999;-79
2022/08/24 02:22:25;;;;;;;23.13;19.85;;;20.30;99.90;;;;;;6348711;22;20010;-78
2022/08/24 02:24:50;;;;;;;25.20;20.08;;;20.30;99.90;;;;;;6351001;22;20002;-77
2022/08/24 02:27:16;;;;;;;22.98;19.92;;;20.30;99.90;;;;;;6353185;22;20017;-79
2022/08/24 02:29:42;;;;;;;20.98;18.77;;;20.30;99.90;;;;;;6357093;22;20001;-78
2022/08/24 02:32:09;;;;;;;22.23;19.40;;;20.30;99.90;;;;;;6353653;22;20022;-78
2022/08/24 02:34:35;;;;;;;25.98;21.00;;;20.30;99.90;;;;;;6348170;22;20499;-80
2022/08/24 02:37:00;;;;;;;25.23;19.85;;;20.30;99.90;;;;;;6346298;22;19999;-77
2022/08/24 02:39:27;;;;;;;22.67;20.13;;;20.30;99.90;;;;;;6340363;22;20069;-79
2022/08/24 02:41:52;;;;;;;29.42;21.92;;;20.30;99.90;;;;;;6339426;22;20010;-78
2022/08/24 02:44:18;;;;;;;25.98;23.15;;;20.20;99.90;;;;;;6338725;22;20006;-79
2022/08/24 02:46:44;;;;;;;25.85;21.65;;;20.20;99.90;;;;;;6338875;22;20014;-79
2022/08/24 02:49:10;;;;;;;27.77;22.45;;;20.20;99.90;;;;;;6337012;22;20414;-79
2022/08/24 02:51:36;;;;;;;28.98;24.05;;;20.50;99.90;;;;;;6342447;22;20030;-79
2022/08/24 02:54:04;;;;;;;30.95;24.83;;;20.20;99.90;;;;;;6341098;22;20003;-78
2022/08/24 02:56:30;;;;;;;25.83;21.98;;;20.20;99.90;;;;;;6336388;22;20081;-78
2022/08/24 02:58:57;;;;;;;26.45;22.65;;;20.10;99.90;;;;;;6337535;22;20084;-78
2022/08/24 03:01:22;;;;;;;28.45;23.13;;;20.20;99.90;;;;;;6339113;22;20011;-77
2022/08/24 03:03:48;;;;;;;26.08;22.02;;;20.10;99.90;;;;;;6342861;22;20325;-78
2022/08/24 03:06:14;;;;;;;27.20;21.27;;;20.10;99.90;;;;;;6338402;22;20014;-77
2022/08/24 03:08:39;;;;;;;25.52;20.95;;;20.10;99.90;;;;;;6344800;22;20006;-78
2022/08/24 03:11:07;;;;;;;27.15;21.77;;;20.10;99.90;;;;;;6340392;22;19998;-79
2022/08/24 03:13:33;;;;;;;26.33;21.67;;;20.10;99.90;;;;;;6340514;22;20361;-79
2022/08/24 03:15:59;;;;;;;26.95;21.88;;;20.00;99.90;;;;;;6340199;22;20318;-78
2022/08/24 03:18:26;;;;;;;25.65;21.13;;;20.10;99.90;;;;;;6338893;22;20073;-78
2022/08/24 03:20:55;;;;;;;25.45;20.90;;;20.10;99.90;;;;;;6340889;22;20064;-78
2022/08/24 03:23:22;;;;;;;23.10;19.13;;;20.10;99.90;;;;;;6339654;22;20432;-77
2022/08/24 03:25:49;;;;;;;25.85;19.88;;;19.90;99.90;;;;;;6338971;22;20019;-77
2022/08/24 03:28:14;;;;;;;26.30;21.08;;;20.00;99.90;;;;;;6339538;22;20011;-79
2022/08/24 03:30:42;;;;;;;28.45;23.33;;;20.00;99.90;;;;;;6339862;22;20006;-77
2022/08/24 03:33:08;;;;;;;27.92;21.75;;;20.00;99.90;;;;;;6339131;22;20006;-79
2022/08/24 03:35:33;;;;;;;31.38;23.85;;;20.00;99.90;;;;;;6340860;22;20003;-78
2022/08/24 03:37:59;;;;;;;28.70;24.40;;;20.00;99.90;;;;;;6340056;22;20015;-79
2022/08/24 03:40:26;;;;;;;29.27;22.70;;;19.90;99.90;;;;;;6338038;22;20026;-78
2022/08/24 03:42:52;;;;;;;32.45;23.33;;;19.90;99.90;;;;;;6339457;22;20026;-77
2022/08/24 03:45:19;;;;;;;29.77;23.83;;;19.90;99.90;;;;;;6340370;22;20050;-78
2022/08/24 03:47:45;;;;;;;31.65;23.60;;;19.90;99.90;;;;;;6338851;22;20312;-78
2022/08/24 03:50:12;;;;;;;35.83;23.60;;;19.80;99.90;;;;;;6339517;22;20006;-79
2022/08/24 03:52:37;;;;;;;27.05;21.75;;;19.80;99.90;;;;;;6340544;22;20069;-79
2022/08/24 03:55:05;;;;;;;26.42;21.83;;;19.80;99.90;;;;;;6340154;22;20002;-77
2022/08/24 03:57:32;;;;;;;29.30;22.55;;;19.80;99.90;;;;;;6338994;22;20137;-77
2022/08/24 03:59:58;;;;;;;30.33;23.88;;;19.80;99.90;;;;;;6340374;22;19998;-78
2022/08/24 04:02:25;;;;;;;29.40;23.13;;;19.80;99.90;;;;;;6339006;22;20445;-79
2022/08/24 04:04:51;;;;;;;27.10;22.63;;;19.80;99.90;;;;;;6340059;22;20060;-78
2022/08/24 04:07:16;;;;;;;30.35;24.30;;;19.80;99.90;;;;;;6340866;22;20014;-77
2022/08/24 04:09:42;;;;;;;31.02;23.90;;;19.80;99.90;;;;;;6339555;22;20038;-77
2022/08/24 04:12:07;;;;;;;30.95;23.55;;;19.70;99.90;;;;;;6339656;22;19999;-79
2022/08/24 04:14:34;;;;;;;31.95;23.58;;;19.70;99.90;;;;;;6338813;22;19999;-77
2022/08/24 04:17:00;;;;;;;33.10;25.50;;;19.70;99.90;;;;;;6339000;22;20434;-77
2022/08/24 04:19:26;;;;;;;36.20;26.85;;;19.70;99.90;;;;;;6338543;22;20002;-78
2022/08/24 04:21:52;;;;;;;33.33;25.55;;;19.70;99.90;;;;;;6338741;22;20010;-80
2022/08/24 04:24:19;;;;;;;34.70;26.15;;;19.70;99.90;;;;;;6339741;22;19998;-78
2022/08/24 04:26:45;;;;;;;30.15;23.88;;;19.70;99.90;;;;;;6338462;22;20461;-78
2022/08/24 04:29:13;;;;;;;28.73;23.73;;;19.60;99.90;;;;;;6338603;22;20038;-78
2022/08/24 04:31:41;;;;;;;29.90;23.00;;;19.70;99.90;;;;;;6339500;22;20030;-78
2022/08/24 04:34:07;;;;;;;33.40;25.08;;;19.60;99.90;;;;;;6339450;22;20022;-78
2022/08/24 04:36:34;;;;;;;37.20;27.17;;;19.50;99.90;;;;;;6337975;22;20279;-78
2022/08/24 04:39:00;;;;;;;34.65;25.77;;;19.60;99.90;;;;;;6339163;22;20339;-79
2022/08/24 04:41:26;;;;;;;35.28;26.70;;;19.60;99.90;;;;;;6339648;22;20006;-78
2022/08/24 04:43:52;;;;;;;31.80;25.88;;;19.60;99.90;;;;;;6339845;22;20022;-78
2022/08/24 04:46:18;;;;;;;38.10;28.33;;;19.60;99.90;;;;;;6339862;22;20369;-77
2022/08/24 04:48:46;;;;;;;35.90;26.80;;;19.60;99.90;;;;;;6340052;22;20383;-77
2022/08/24 04:51:16;;;;;;;32.33;26.23;;;19.60;99.90;;;;;;6338452;22;20039;-78
2022/08/24 04:53:42;;;;;;;;;;;19.60;99.90;;;;;;6340463;22;20010;-77
2022/08/24 04:56:14;;;;;;;40.65;27.00;;;19.60;99.90;;;;;;6339247;22;19899;-78
2022/08/24 04:58:39;;;;;;;34.03;27.40;;;19.60;99.90;;;;;;6338331;22;19999;-77
2022/08/24 05:01:14;;;;;;;34.40;26.85;;;19.60;99.90;;;;;;6339613;22;20068;-77
2022/08/24 05:03:40;;;;;;;40.00;26.95;;;19.70;99.90;;;;;;6342399;22;20034;-78
2022/08/24 05:06:06;;;;;;;34.75;25.27;;;19.70;99.90;;;;;;6340043;22;20002;-78
2022/08/24 05:08:32;;;;;;;34.58;23.95;;;19.70;99.90;;;;;;6337961;22;20011;-78
2022/08/24 05:10:58;;;;;;;35.85;27.23;;;19.70;99.90;;;;;;6336965;22;19995;-80
2022/08/24 05:13:24;;;;;;;34.13;26.42;;;19.70;99.90;;;;;;6338748;22;20007;-77
2022/08/24 05:15:49;;;;;;;33.65;25.90;;;19.70;99.90;;;;;;6340278;22;19991;-78
2022/08/24 05:18:16;;;;;;;33.03;25.08;;;19.80;99.90;;;;;;6310330;22;20010;-79
2022/08/24 05:20:44;;;;;;;31.83;24.00;;;19.80;99.90;;;;;;6342337;22;20003;-79
2022/08/24 05:23:10;;;;;;;25.63;20.98;;;19.80;99.90;;;;;;6338151;22;20009;-78
2022/08/24 05:25:41;;;;;;;24.38;20.17;;;19.90;99.90;;;;;;6337914;22;20069;-79
2022/08/24 05:28:07;;;;;;;26.23;20.73;;;19.90;99.90;;;;;;6339187;22;20015;-78
2022/08/24 05:30:33;;;;;;;28.27;21.52;;;19.90;99.90;;;;;;6338204;22;20302;-78
2022/08/24 05:32:59;;;;;;;26.25;21.63;;;20.00;99.90;;;;;;6337569;22;20066;-79
2022/08/24 05:35:24;;;;;;;25.40;20.33;;;20.00;99.90;;;;;;6338866;22;19999;-79
2022/08/24 05:37:50;;;;;;;23.75;18.67;;;20.00;99.90;;;;;;6338895;22;20025;-79
2022/08/24 05:40:18;;;;;;;23.27;20.15;;;20.10;99.90;;;;;;6337261;22;20006;-81
2022/08/24 05:42:44;;;;;;;22.92;20.10;;;20.10;99.90;;;;;;6337143;22;20007;-80
2022/08/24 05:45:10;;;;;;;24.88;20.92;;;20.20;99.90;;;;;;6336519;22;20002;-79
2022/08/24 05:47:35;;;;;;;24.00;20.35;;;20.20;99.90;;;;;;6335575;22;20014;-78
2022/08/24 05:50:02;;;;;;;23.23;19.77;;;20.30;99.90;;;;;;6336679;22;20069;-79
2022/08/24 05:52:28;;;;;;;25.50;21.20;;;20.40;99.90;;;;;;6336320;22;20319;-77
2022/08/24 05:54:56;;;;;;;28.70;23.05;;;20.40;99.90;;;;;;6336857;22;20014;-79
2022/08/24 05:57:24;;;;;;;25.98;21.42;;;20.50;99.90;;;;;;6336648;22;20427;-78
2022/08/24 05:59:50;;;;;;;24.92;21.25;;;20.50;99.90;;;;;;6337095;22;20077;-77
2022/08/24 06:02:16;;;;;;;24.75;20.20;;;20.60;99.90;;;;;;6335598;22;20030;-79
2022/08/24 06:04:43;;;;;;;22.45;18.67;;;20.70;99.90;;;;;;6337697;22;20010;-78
2022/08/24 06:07:10;;;;;;;20.98;17.90;;;20.70;99.90;;;;;;6336856;22;20007;-77
2022/08/24 06:09:38;;;;;;;24.88;19.75;;;20.80;99.90;;;;;;6338013;22;20073;-78
2022/08/24 06:12:05;;;;;;;26.00;21.20;;;20.90;99.90;;;;;;6339263;22;20415;-77
2022/08/24 06:14:31;;;;;;;23.15;18.90;;;21.00;99.90;;;;;;6338971;22;20007;-76
2022/08/24 06:16:57;;;;;;;19.77;17.70;;;21.00;99.90;;;;;;6339327;22;20091;-77
2022/08/24 06:19:23;;;;;;;17.17;15.38;;;21.10;99.90;;;;;;6336427;22;20446;-78
2022/08/24 06:21:50;;;;;;;24.75;18.40;;;21.10;99.90;;;;;;6336252;22;20052;-78
2022/08/24 06:24:16;;;;;;;18.63;16.65;;;21.20;99.90;;;;;;6338052;22;20003;-77
2022/08/24 06:29:27;;;;;;;16.75;15.00;;;21.30;99.90;;;;;;6338764;22;20010;-77
2022/08/24 06:31:53;;;;;;;16.10;14.50;;;21.30;99.90;;;;;;6338995;22;19999;-78
2022/08/24 06:34:19;;;;;;;16.52;14.95;;;21.40;99.90;;;;;;6339220;22;20078;-78
2022/08/24 06:36:46;;;;;;;16.58;14.85;;;21.40;99.90;;;;;;6339186;22;20065;-78
2022/08/24 06:39:12;;;;;;;22.10;17.42;;;21.40;99.90;;;;;;6339623;22;20048;-78
2022/08/24 06:41:38;;;;;;;17.98;15.57;;;21.50;99.90;;;;;;6339177;22;20010;-77
2022/08/24 06:44:05;;;;;;;19.30;15.30;;;21.60;99.90;;;;;;6339253;22;19999;-78
2022/08/24 06:46:31;;;;;;;15.02;13.48;;;21.60;99.90;;;;;;6341374;22;20006;-78
2022/08/24 06:48:56;;;;;;;17.67;14.27;;;21.70;99.90;;;;;;6342177;22;20018;-77
2022/08/24 06:51:23;;;;;;;17.48;14.80;;;21.70;99.90;;;;;;6339913;22;20079;-78
2022/08/24 06:53:49;;;;;;;14.30;12.90;;;21.80;99.90;;;;;;6342418;22;20329;-78
2022/08/24 06:56:16;;;;;;;17.42;14.38;;;21.80;99.90;;;;;;6342033;22;19998;-78
2022/08/24 06:58:42;;;;;;;19.55;16.92;;;21.90;99.90;;;;;;6342519;22;20324;-79
2022/08/24 07:01:18;;;;;;;15.57;13.85;;;21.90;99.90;;;;;;6343051;22;20088;-79
2022/08/24 07:03:44;;;;;;;17.60;13.10;;;22.00;99.90;;;;;;6343419;22;20006;-79
2022/08/24 07:06:12;;;;;;;16.65;13.70;;;22.00;99.90;;;;;;6341955;22;20002;-79
2022/08/24 07:08:38;;;;;;;15.40;13.45;;;22.10;99.90;;;;;;6340787;22;20331;-79
2022/08/24 07:11:04;;;;;;;17.17;14.80;;;22.20;99.90;;;;;;6342900;22;19995;-78
2022/08/24 07:13:31;;;;;;;17.77;14.98;;;22.20;99.90;;;;;;6345353;22;19999;-78
2022/08/24 07:15:57;;;;;;;16.75;15.13;;;22.20;99.90;;;;;;6349236;22;20063;-78
2022/08/24 07:18:23;;;;;;;15.10;13.40;;;22.20;99.90;;;;;;6349370;22;20014;-78
2022/08/24 07:20:52;;;;;;;14.45;13.07;;;22.30;99.90;;;;;;6340894;22;19998;-78
2022/08/24 07:23:19;;;;;;;18.73;16.75;;;22.40;99.90;;;;;;6339409;22;20038;-78
2022/08/24 07:25:45;;;;;;;14.88;13.35;;;22.40;99.90;;;;;;6343203;22;20019;-77
2022/08/24 07:28:12;;;;;;;18.55;15.70;;;22.50;99.90;;;;;;6340450;22;20014;-77
2022/08/24 07:30:39;;;;;;;16.23;14.55;;;22.60;99.90;;;;;;6346174;22;20051;-79
2022/08/24 07:33:04;;;;;;;13.65;12.20;;;22.70;99.90;;;;;;6350502;22;20010;-80
2022/08/24 07:35:32;;;;;;;14.18;12.63;;;22.80;99.90;;;;;;6338262;22;20323;-77
2022/08/24 07:37:58;;;;;;;14.38;10.60;;;22.80;99.90;;;;;;6339809;22;20077;-76
2022/08/24 07:40:26;;;;;;;12.65;10.75;;;22.80;99.90;;;;;;6337563;22;20010;-75
2022/08/24 07:42:53;;;;;;;11.10;10.00;;;22.90;99.90;;;;;;6338439;22;20383;-75
2022/08/24 07:45:21;;;;;;;16.05;13.88;;;22.90;99.90;;;;;;6338961;22;20143;-77
2022/08/24 07:47:50;;;;;;;12.90;11.68;;;22.90;99.90;;;;;;6337623;22;20086;-77
2022/08/24 07:50:17;;;;;;;12.77;11.57;;;23.00;99.90;;;;;;6330080;22;19999;-77
2022/08/24 07:52:43;;;;;;;15.88;13.32;;;23.10;99.90;;;;;;6338401;22;20015;-75
2022/08/24 07:55:10;;;;;;;21.33;15.20;;;23.10;99.90;;;;;;6339488;22;19991;-75
2022/08/24 07:57:38;;;;;;;12.48;11.23;;;23.10;99.90;;;;;;6339174;22;20075;-76
2022/08/24 08:00:06;;;;;;;15.27;11.65;;;23.20;99.90;;;;;;6338514;22;20003;-75
2022/08/24 08:02:32;;;;;;;11.38;10.13;;;23.30;99.90;;;;;;6339032;22;19999;-75
2022/08/24 08:04:58;;;;;;;10.02;9.02;;;23.30;99.90;;;;;;6339474;22;20027;-76
2022/08/24 08:07:24;;;;;;;17.00;15.27;;;23.40;99.90;;;;;;6338072;22;20006;-70
2022/08/24 08:09:51;;;;;;;12.57;9.40;;;23.40;99.90;;;;;;6339289;22;20024;-74
2022/08/24 08:12:18;;;;;;;12.25;10.90;;;23.40;99.90;;;;;;6339060;22;20070;-75
2022/08/24 08:14:44;;;;;;;14.20;11.43;;;23.50;99.90;;;;;;6338909;22;20005;-76
2022/08/24 08:17:10;;;;;;;14.43;8.50;;;23.60;99.90;;;;;;6339297;22;20002;-77
2022/08/24 08:19:36;;;;;;;9.77;8.43;;;23.60;99.90;;;;;;6338822;22;20056;-76
2022/08/24 08:24:46;;;;;;;12.23;11.13;;;23.70;99.90;;;;;;6338655;22;20009;-76
2022/08/24 08:27:15;;;;;;;16.55;14.20;;;23.80;99.90;;;;;;6337725;22;20018;-76
2022/08/24 08:29:42;;;;;;;11.52;10.43;;;23.80;99.90;;;;;;6337362;22;20070;-76
2022/08/24 08:32:10;;;;;;;14.30;10.70;;;23.90;99.90;;;;;;6337950;22;20082;-77
2022/08/24 08:34:37;;;;;;;13.00;11.77;;;24.00;99.90;;;;;;6338274;22;20002;-76
2022/08/24 08:37:03;;;;;;;10.90;9.80;;;24.10;99.90;;;;;;6337385;22;19999;-75
2022/08/24 08:39:29;;;;;;;9.75;8.85;;;24.10;99.90;;;;;;6337890;22;20077;-77
2022/08/24 08:42:16;;;;;;;7.90;7.10;;;24.20;99.90;;;;;;6334290;22;20449;-75
2022/08/24 08:44:51;;;;;;;5.95;5.43;;;24.30;99.90;;;;;;6337243;22;20087;-76
2022/08/24 08:47:42;;;;;;;10.55;8.85;;;24.30;99.90;;;;;;6336284;22;20438;-75
2022/08/24 08:50:21;;;;;;;7.35;6.72;;;24.40;99.90;;;;;;6335819;22;19999;-75
2022/08/24 08:53:17;;;;;;;10.00;8.90;;;24.50;99.90;;;;;;6336347;22;20059;-77
2022/08/24 08:56:04;;;;;;;8.13;7.43;;;24.50;99.90;;;;;;6331752;22;20007;-75
2022/08/24 08:58:51;;;;;;;11.02;8.98;;;24.50;99.90;;;;;;6333691;22;20072;-74
2022/08/24 09:01:52;;;;;;;12.43;11.15;;;24.60;99.90;;;;;;6336411;22;20003;-74
2022/08/24 09:04:52;;;;;;;8.73;7.85;;;24.70;99.90;;;;;;6334628;22;20502;-75
2022/08/24 09:07:42;;;;;;;12.65;7.78;;;24.70;99.90;;;;;;6333796;22;20068;-74
2022/08/24 09:10:41;;;;;;;7.22;6.53;;;24.80;99.90;;;;;;6333728;22;20334;-75
2022/08/24 09:13:44;;;;;;;5.38;4.93;;;25.00;99.90;;;;;;6335958;22;20093;-75
2022/08/24 09:16:25;;;;;;;7.63;5.18;;;25.00;99.90;;;;;;6336329;22;20024;-76
2022/08/24 09:18:59;;;;;;;7.07;6.50;;;25.00;99.90;;;;;;6335021;22;20007;-74
2022/08/24 09:21:51;;;;;;;7.97;7.18;;;25.10;99.90;;;;;;6334752;22;20060;-76
2022/08/24 09:24:25;;;;;;;5.95;5.47;;;25.20;99.90;;;;;;6326685;22;20469;-75
2022/08/24 09:27:21;;;;;;;6.35;3.95;;;25.20;99.90;;;;;;6334750;22;20015;-76
2022/08/24 09:30:27;;;;;;;4.63;3.63;;;25.30;99.90;;;;;;6333963;22;20009;-75
2022/08/24 09:33:19;;;;;;;6.90;4.05;;;25.40;99.90;;;;;;6334560;22;20011;-73
2022/08/24 09:36:07;;;;;;;3.92;3.50;;;25.50;99.90;;;;;;6335360;22;19999;-75
2022/08/24 09:39:04;;;;;;;3.55;3.25;;;25.60;99.90;;;;;;6333184;22;20014;-75
2022/08/24 09:41:48;;;;;;;3.53;1.92;;;25.60;99.90;;;;;;6335438;22;20015;-76
2022/08/24 09:44:26;;;;;;;3.55;3.10;;;25.70;99.90;;;;;;6333957;22;20003;-76
2022/08/24 09:47:17;;;;;;;2.38;2.17;;;25.70;99.90;;;;;;6334708;22;20003;-75
2022/08/24 09:49:56;;;;;;;2.80;2.50;;;25.60;99.90;;;;;;6335597;22;20011;-77
2022/08/24 09:52:49;;;;;;;3.83;3.53;;;25.60;99.90;;;;;;6333019;22;20588;-75
2022/08/24 09:55:20;;;;;;;2.75;2.03;;;25.70;99.90;;;;;;6334289;22;20034;-76
2022/08/24 09:58:23;;;;;;;3.70;3.40;;;25.70;99.90;;;;;;6334507;22;20069;-75
2022/08/24 10:00:53;;;;;;;6.03;4.13;;;25.80;99.90;;;;;;6333845;22;19999;-76
2022/08/24 10:03:44;;;;;;;2.28;2.08;;;25.80;99.90;;;;;;6335934;22;20011;-75
2022/08/24 10:06:16;;;;;;;5.10;2.08;;;25.90;99.90;;;;;;6336809;22;20010;-76
2022/08/24 10:08:59;;;;;;;2.00;1.70;;;25.80;99.90;;;;;;6336426;22;20075;-77
2022/08/24 10:11:43;;;;;;;1.95;1.83;;;25.80;99.90;;;;;;6336335;22;19995;-76
2022/08/24 10:14:35;;;;;;;3.70;1.73;;;25.80;99.90;;;;;;6336110;22;19999;-77
2022/08/24 10:17:06;;;;;;;2.08;1.98;;;25.80;99.90;;;;;;6335422;22;20381;-76
2022/08/24 10:20:10;;;;;;;1.85;1.63;;;25.80;99.90;;;;;;6336722;22;20003;-75
2022/08/24 10:23:00;;;;;;;1.50;1.40;;;25.80;99.90;;;;;;6337546;22;20051;-75
2022/08/24 10:25:35;;;;;;;2.47;1.42;;;25.70;99.90;;;;;;6340066;22;20498;-75
2022/08/24 10:28:30;;;;;;;2.20;1.58;;;25.80;99.90;;;;;;6337645;22;20044;-75
2022/08/24 10:31:04;;;;;;;3.05;1.70;;;25.80;99.90;;;;;;6338930;22;20494;-75
2022/08/24 10:34:09;;;;;;;2.92;2.05;;;25.80;99.90;;;;;;6339510;22;20022;-77
2022/08/24 10:37:04;;;;;;;2.53;1.73;;;25.80;99.90;;;;;;6339343;22;19995;-76
2022/08/24 10:39:51;;;;;;;2.67;1.98;;;25.80;99.90;;;;;;6339403;22;20030;-76
2022/08/24 10:45:33;;;;;;;1.50;1.35;;;25.80;99.90;;;;;;6340151;22;20021;-76
2022/08/24 10:48:18;;;;;;;1.40;1.30;;;25.80;99.90;;;;;;6340379;22;20045;-77
2022/08/24 10:51:16;;;;;;;1.70;1.60;;;25.80;99.90;;;;;;6340785;22;20041;-76
2022/08/24 10:53:48;;;;;;;2.45;1.70;;;25.90;99.90;;;;;;6271492;22;20007;-75
2022/08/24 10:56:18;;;;;;;1.40;1.30;;;26.00;99.90;;;;;;6339254;22;20020;-76
2022/08/24 10:59:13;;;;;;;2.55;1.38;;;26.10;99.90;;;;;;6340066;22;19999;-73
2022/08/24 11:01:39;;;;;;;1.42;1.33;;;26.30;99.90;;;;;;6339876;22;20061;-74
2022/08/24 11:04:09;;;;;;;4.03;1.98;;;26.60;99.90;;;;;;6338397;22;20058;-74
2022/08/24 11:06:40;;;;;;;2.00;1.80;;;26.90;99.90;;;;;;6337373;22;20011;-74
2022/08/24 11:09:10;;;;;;;2.10;1.65;;;27.10;99.90;;;;;;6337582;22;19998;-72
2022/08/24 11:11:42;;;;;;;1.40;1.40;;;27.30;99.90;;;;;;6335814;22;20003;-73
2022/08/24 11:14:28;;;;;;;2.15;1.70;;;27.50;99.90;;;;;;6338644;22;19995;-73
2022/08/24 11:17:16;;;;;;;1.50;1.40;;;27.80;99.90;;;;;;6310534;22;19999;-73
2022/08/24 11:19:42;;;;;;;1.90;1.33;;;28.00;99.90;;;;;;6338648;22;20056;-74
2022/08/24 11:22:28;;;;;;;1.13;1.13;;;28.10;98.70;;;;;;6338968;22;20296;-73
2022/08/24 11:24:57;;;;;;;1.70;1.60;;;28.20;99.60;;;;;;6336858;22;20093;-74
2022/08/24 11:27:45;;;;;;;2.08;1.20;;;28.40;99.40;;;;;;6337946;22;20027;-73
2022/08/24 11:30:14;;;;;;;1.50;1.20;;;28.60;99.20;;;;;;6338619;22;19995;-73
2022/08/24 11:32:53;;;;;;;2.40;1.33;;;28.70;99.10;;;;;;6337724;22;20427;-73
2022/08/24 11:35:23;;;;;;;1.70;1.50;;;28.80;97.90;;;;;;6336671;22;20011;-73
2022/08/24 11:37:53;;;;;;;2.97;1.40;;;28.80;98.40;;;;;;6337757;22;20331;-74
2022/08/24 11:40:21;;;;;;;1.00;1.00;;;28.80;97.70;;;;;;6337193;22;20084;-73
2022/08/24 11:43:30;;;;;;;1.20;1.17;;;28.80;97.90;;;;;;6337628;22;19998;-73
2022/08/24 11:46:08;;;;;;;0.97;0.97;;;28.90;97.80;;;;;;6310956;22;20319;-73
2022/08/24 11:49:07;;;;;;;1.20;0.80;;;28.90;97.60;;;;;;6338680;22;20264;-73
2022/08/24 11:51:39;;;;;;;1.10;1.10;;;29.00;97.40;;;;;;6338308;22;20438;-73
2022/08/24 11:54:23;;;;;;;1.52;1.17;;;29.00;97.30;;;;;;6339097;22;20079;-73
2022/08/24 11:57:13;;;;;;;1.17;1.00;;;28.90;96.80;;;;;;6339054;22;20003;-74
2022/08/24 11:59:39;;;;;;;2.33;1.00;;;28.90;96.70;;;;;;6338449;22;20026;-73
2022/08/24 12:02:09;;;;;;;1.27;1.17;;;28.70;97.10;;;;;;6339218;22;20076;-74
2022/08/24 12:05:09;;;;;;;2.17;0.80;;;28.70;96.70;;;;;;6338946;22;20366;-73
2022/08/24 12:08:01;;;;;;;4.00;1.10;;;28.40;97.40;;;;;;6339782;22;20011;-75
2022/08/24 12:10:36;;;;;;;0.82;0.80;;;28.30;97.50;;;;;;6341838;22;20052;-75
2022/08/24 12:13:14;;;;;;;3.17;1.10;;;28.20;97.70;;;;;;6342461;22;20305;-74
2022/08/24 12:16:17;;;;;;;1.40;1.30;;;28.10;98.10;;;;;;6342682;22;20461;-73
2022/08/24 12:19:10;;;;;;;1.10;1.10;;;28.00;98.30;;;;;;6304994;22;20544;-73
2022/08/24 12:21:39;;;;;;;1.15;1.15;;;28.00;98.30;;;;;;6329298;22;19994;-75
2022/08/24 12:24:13;;;;;;;2.13;1.93;;;27.90;98.20;;;;;;6340923;22;19999;-74
2022/08/24 12:26:54;;;;;;;2.00;1.40;;;28.00;98.00;;;;;;6337982;22;20109;-73
2022/08/24 12:29:27;;;;;;;1.38;1.02;;;28.00;97.80;;;;;;6338611;22;20003;-73
2022/08/24 12:32:05;;;;;;;1.20;1.15;;;28.20;97.60;;;;;;6338615;22;20007;-72
2022/08/24 12:34:39;;;;;;;0.90;0.90;;;28.20;97.80;;;;;;6337538;22;19999;-73
2022/08/24 12:37:18;;;;;;;1.65;1.33;;;28.40;98.10;;;;;;6338675;22;20002;-73
2022/08/24 12:39:53;;;;;;;2.28;1.20;;;28.60;97.40;;;;;;6338760;22;20074;-73
2022/08/24 12:42:23;;;;;;;1.30;1.20;;;28.90;96.90;;;;;;6337173;22;20074;-72
2022/08/24 12:44:59;;;;;;;1.30;1.20;;;29.10;96.90;;;;;;6338697;22;20009;-73
2022/08/24 12:47:46;;;;;;;1.00;1.00;;;29.40;96.40;;;;;;6338121;22;20081;-72
2022/08/24 12:50:41;;;;;;;1.90;1.30;;;29.60;96.00;;;;;;6336964;22;20010;-72
2022/08/24 12:53:28;;;;;;;2.25;1.30;;;29.70;95.20;;;;;;6338612;22;19995;-73
2022/08/24 12:56:09;;;;;;;2.05;1.08;;;29.60;94.40;;;;;;6337024;22;20009;-73
2022/08/24 12:58:43;;;;;;;1.00;1.00;;;29.60;94.60;;;;;;6338197;22;20086;-74
2022/08/24 13:01:12;;;;;;;1.63;1.00;;;29.60;95.10;;;;;;6338168;22;20056;-74
2022/08/24 13:03:40;;;;;;;1.13;0.98;;;29.50;95.10;;;;;;6337598;22;20331;-73
2022/08/24 13:06:26;;;;;;;1.25;1.08;;;29.60;95.50;;;;;;6338509;22;20002;-73
2022/08/24 13:09:03;;;;;;;1.40;1.02;;;29.60;95.30;;;;;;6338622;22;20007;-73